Terminal Aerodrome Forecast
Issued by NWS

Home | Current Version | Previous Version | Text Only | Print | Product List | Glossary On
Versions: 1 2 3 4 5 6 7 8 9 10 11 12 13 14 15
000
FTUS45 KABQ 291747 RRA
TAFLVS
TAF
KLVS 291747Z 2918/3018 12008KT P6SM VCSH BKN080
      TEMPO 2923/3003 VRB15G28KT 4SM TSRA OVC035CB
     FM300300 03010KT P6SM VCSH OVC035
     FM300700 VRB05KT 3SM BR OVC025
     FM301100 05007KT 4SM BR OVC030=

USA.gov is the U.S. government's official web portal to all federal, state and local government web resources and services.